sensor_id;sensor_type;location;lat;lon;timestamp;pressure;altitude;pressure_sealevel;temperature;humidity
30935;BME280;51033;42.648;23.292;2022-12-16T00:00:25;93681.31;;;3.67;75.14
30935;BME280;51033;42.648;23.292;2022-12-16T00:02:51;93678.00;;;3.96;75.17
30935;BME280;51033;42.648;23.292;2022-12-16T00:05:18;93694.44;;;4.11;74.11
30935;BME280;51033;42.648;23.292;2022-12-16T00:07:47;93692.19;;;4.28;73.61
30935;BME280;51033;42.648;23.292;2022-12-16T00:10:13;93690.53;;;3.16;77.81
30935;BME280;51033;42.648;23.292;2022-12-16T00:12:39;93680.16;;;3.45;78.20
30935;BME280;51033;42.648;23.292;2022-12-16T00:15:04;93677.28;;;3.85;76.06
30935;BME280;51033;42.648;23.292;2022-12-16T00:17:30;93684.09;;;3.47;77.53
30935;BME280;51033;42.648;23.292;2022-12-16T00:19:55;93687.19;;;3.93;76.29
30935;BME280;51033;42.648;23.292;2022-12-16T00:22:22;93679.78;;;3.66;76.49
30935;BME280;51033;42.648;23.292;2022-12-16T00:24:47;93676.28;;;4.10;75.96
30935;BME280;51033;42.648;23.292;2022-12-16T00:27:12;93662.13;;;4.06;74.83
30935;BME280;51033;42.648;23.292;2022-12-16T00:29:38;93648.22;;;4.00;74.60
30935;BME280;51033;42.648;23.292;2022-12-16T00:32:03;93695.66;;;3.90;76.67
30935;BME280;51033;42.648;23.292;2022-12-16T00:34:30;93663.13;;;3.32;76.90
30935;BME280;51033;42.648;23.292;2022-12-16T00:36:57;93674.13;;;2.80;80.68
30935;BME280;51033;42.648;23.292;2022-12-16T00:39:22;93672.06;;;3.31;77.84
30935;BME280;51033;42.648;23.292;2022-12-16T00:41:48;93663.94;;;3.32;76.94
30935;BME280;51033;42.648;23.292;2022-12-16T00:44:15;93680.47;;;2.69;80.90
30935;BME280;51033;42.648;23.292;2022-12-16T00:46:40;93678.41;;;3.25;78.82
30935;BME280;51033;42.648;23.292;2022-12-16T00:49:06;93687.63;;;3.27;78.36
30935;BME280;51033;42.648;23.292;2022-12-16T00:51:31;93673.28;;;3.49;77.66
30935;BME280;51033;42.648;23.292;2022-12-16T00:53:57;93688.56;;;3.91;75.56
30935;BME280;51033;42.648;23.292;2022-12-16T00:56:22;93670.72;;;3.77;74.76
30935;BME280;51033;42.648;23.292;2022-12-16T00:58:48;93662.50;;;3.89;74.56
30935;BME280;51033;42.648;23.292;2022-12-16T01:01:13;93638.75;;;3.65;75.94
30935;BME280;51033;42.648;23.292;2022-12-16T01:03:39;93658.19;;;4.03;74.52
30935;BME280;51033;42.648;23.292;2022-12-16T01:06:10;93666.69;;;3.95;74.25
30935;BME280;51033;42.648;23.292;2022-12-16T01:08:37;93683.72;;;4.03;74.36
30935;BME280;51033;42.648;23.292;2022-12-16T01:11:03;93656.94;;;3.96;74.74
30935;BME280;51033;42.648;23.292;2022-12-16T01:13:28;93665.63;;;3.96;74.71
30935;BME280;51033;42.648;23.292;2022-12-16T01:15:54;93679.63;;;4.20;73.74
30935;BME280;51033;42.648;23.292;2022-12-16T01:18:20;93681.94;;;4.27;73.51
30935;BME280;51033;42.648;23.292;2022-12-16T01:20:45;93703.63;;;4.48;72.76
30935;BME280;51033;42.648;23.292;2022-12-16T01:23:10;93670.91;;;4.25;72.26
30935;BME280;51033;42.648;23.292;2022-12-16T01:25:36;93660.22;;;3.33;76.29
30935;BME280;51033;42.648;23.292;2022-12-16T01:28:01;93676.00;;;3.77;75.57
30935;BME280;51033;42.648;23.292;2022-12-16T01:30:27;93659.97;;;4.08;74.04
30935;BME280;51033;42.648;23.292;2022-12-16T01:32:52;93647.09;;;4.06;73.12
30935;BME280;51033;42.648;23.292;2022-12-16T01:35:18;93664.34;;;4.22;72.66
30935;BME280;51033;42.648;23.292;2022-12-16T01:37:43;93656.47;;;4.17;72.64
30935;BME280;51033;42.648;23.292;2022-12-16T01:40:16;93663.38;;;4.13;72.90
30935;BME280;51033;42.648;23.292;2022-12-16T01:42:43;93660.97;;;4.17;72.98
30935;BME280;51033;42.648;23.292;2022-12-16T01:45:41;93648.88;;;3.82;74.59
30935;BME280;51033;42.648;23.292;2022-12-16T01:48:24;93645.94;;;4.17;73.38
30935;BME280;51033;42.648;23.292;2022-12-16T01:50:59;93653.84;;;4.17;73.15
30935;BME280;51033;42.648;23.292;2022-12-16T01:53:25;93645.66;;;3.90;74.32
30935;BME280;51033;42.648;23.292;2022-12-16T01:55:52;93655.34;;;4.28;72.92
30935;BME280;51033;42.648;23.292;2022-12-16T01:58:23;93648.28;;;4.24;72.37
30935;BME280;51033;42.648;23.292;2022-12-16T02:00:49;93621.16;;;4.23;71.60
30935;BME280;51033;42.648;23.292;2022-12-16T02:03:14;93658.22;;;4.32;71.46
30935;BME280;51033;42.648;23.292;2022-12-16T02:05:41;93625.50;;;4.09;72.37
30935;BME280;51033;42.648;23.292;2022-12-16T02:08:16;93633.69;;;3.30;75.37
30935;BME280;51033;42.648;23.292;2022-12-16T02:18:39;93609.63;;;4.19;71.72
30935;BME280;51033;42.648;23.292;2022-12-16T02:22:07;93623.75;;;4.28;71.21
30935;BME280;51033;42.648;23.292;2022-12-16T02:34:36;93608.72;;;3.71;73.47
30935;BME280;51033;42.648;23.292;2022-12-16T02:39:41;93603.25;;;4.25;71.98
30935;BME280;51033;42.648;23.292;2022-12-16T02:42:16;93606.41;;;4.22;71.33
30935;BME280;51033;42.648;23.292;2022-12-16T02:47:15;93641.66;;;4.26;72.91
30935;BME280;51033;42.648;23.292;2022-12-16T02:49:45;93646.38;;;4.35;72.60
30935;BME280;51033;42.648;23.292;2022-12-16T02:52:12;93650.84;;;4.29;72.57
30935;BME280;51033;42.648;23.292;2022-12-16T02:54:38;93658.06;;;4.18;73.76
30935;BME280;51033;42.648;23.292;2022-12-16T03:02:29;93674.81;;;4.27;74.03
30935;BME280;51033;42.648;23.292;2022-12-16T03:07:34;93647.78;;;4.51;72.79
30935;BME280;51033;42.648;23.292;2022-12-16T03:10:04;93638.72;;;4.62;72.53
30935;BME280;51033;42.648;23.292;2022-12-16T03:12:32;93641.59;;;4.60;72.38
30935;BME280;51033;42.648;23.292;2022-12-16T03:14:58;93628.22;;;4.57;72.05
30935;BME280;51033;42.648;23.292;2022-12-16T03:17:25;93620.03;;;4.35;72.57
30935;BME280;51033;42.648;23.292;2022-12-16T03:20:29;93623.00;;;4.52;72.40
30935;BME280;51033;42.648;23.292;2022-12-16T03:23:00;93615.19;;;4.13;74.02
30935;BME280;51033;42.648;23.292;2022-12-16T03:25:28;93606.59;;;3.73;74.92
30935;BME280;51033;42.648;23.292;2022-12-16T03:28:09;93614.66;;;4.16;75.13
30935;BME280;51033;42.648;23.292;2022-12-16T03:30:45;93582.81;;;3.83;74.72
30935;BME280;51033;42.648;23.292;2022-12-16T03:33:16;93618.47;;;4.28;73.57
30935;BME280;51033;42.648;23.292;2022-12-16T03:35:51;93624.91;;;4.17;73.77
30935;BME280;51033;42.648;23.292;2022-12-16T03:38:22;93616.41;;;4.25;72.87
30935;BME280;51033;42.648;23.292;2022-12-16T03:40:49;93590.22;;;4.10;72.91
30935;BME280;51033;42.648;23.292;2022-12-16T03:43:15;93600.50;;;3.78;73.61
30935;BME280;51033;42.648;23.292;2022-12-16T03:45:42;93643.47;;;3.97;74.09
30935;BME280;51033;42.648;23.292;2022-12-16T03:48:11;93658.41;;;4.07;73.94
30935;BME280;51033;42.648;23.292;2022-12-16T03:50:37;93667.53;;;4.19;73.41
30935;BME280;51033;42.648;23.292;2022-12-16T03:53:02;93657.72;;;4.30;72.95
30935;BME280;51033;42.648;23.292;2022-12-16T03:55:28;93652.91;;;4.37;72.96
30935;BME280;51033;42.648;23.292;2022-12-16T03:57:54;93647.81;;;4.46;72.74
30935;BME280;51033;42.648;23.292;2022-12-16T04:00:21;93642.16;;;4.00;74.38
30935;BME280;51033;42.648;23.292;2022-12-16T04:02:47;93659.25;;;3.63;75.55
30935;BME280;51033;42.648;23.292;2022-12-16T04:05:13;93667.38;;;3.72;76.72
30935;BME280;51033;42.648;23.292;2022-12-16T04:07:39;93660.78;;;4.08;75.04
30935;BME280;51033;42.648;23.292;2022-12-16T04:10:05;93668.97;;;4.36;73.64
30935;BME280;51033;42.648;23.292;2022-12-16T04:12:31;93663.13;;;4.44;73.72
30935;BME280;51033;42.648;23.292;2022-12-16T04:15:31;93635.06;;;4.29;73.78
30935;BME280;51033;42.648;23.292;2022-12-16T04:18:17;93663.16;;;4.67;72.93
30935;BME280;51033;42.648;23.292;2022-12-16T04:21:05;93657.66;;;4.64;73.64
30935;BME280;51033;42.648;23.292;2022-12-16T04:23:54;93657.78;;;4.78;73.25
30935;BME280;51033;42.648;23.292;2022-12-16T04:26:39;93647.91;;;4.88;72.31
30935;BME280;51033;42.648;23.292;2022-12-16T04:29:23;93638.53;;;4.77;72.75
30935;BME280;51033;42.648;23.292;2022-12-16T04:31:50;93639.59;;;4.76;73.22
30935;BME280;51033;42.648;23.292;2022-12-16T04:34:16;93648.56;;;4.75;73.08
30935;BME280;51033;42.648;23.292;2022-12-16T04:36:58;93642.66;;;4.88;72.69
30935;BME280;51033;42.648;23.292;2022-12-16T04:39:42;93666.72;;;4.53;73.81
30935;BME280;51033;42.648;23.292;2022-12-16T04:42:27;93641.38;;;4.57;74.07
30935;BME280;51033;42.648;23.292;2022-12-16T04:45:16;93640.28;;;4.05;76.15
30935;BME280;51033;42.648;23.292;2022-12-16T04:48:01;93636.91;;;4.28;75.98
30935;BME280;51033;42.648;23.292;2022-12-16T04:50:45;93639.59;;;4.52;74.19
30935;BME280;51033;42.648;23.292;2022-12-16T04:53:29;93628.38;;;4.65;72.78
30935;BME280;51033;42.648;23.292;2022-12-16T04:56:13;93620.22;;;4.67;71.78
30935;BME280;51033;42.648;23.292;2022-12-16T04:58:57;93613.31;;;3.90;73.64
30935;BME280;51033;42.648;23.292;2022-12-16T05:01:42;93626.09;;;4.35;72.91
30935;BME280;51033;42.648;23.292;2022-12-16T05:04:26;93637.13;;;4.61;71.37
30935;BME280;51033;42.648;23.292;2022-12-16T05:07:10;93645.66;;;4.53;72.78
30935;BME280;51033;42.648;23.292;2022-12-16T05:09:54;93625.78;;;4.37;72.33
30935;BME280;51033;42.648;23.292;2022-12-16T05:12:38;93645.59;;;4.58;72.32
30935;BME280;51033;42.648;23.292;2022-12-16T05:15:22;93650.22;;;4.42;73.53
30935;BME280;51033;42.648;23.292;2022-12-16T05:18:08;93642.34;;;4.42;73.19
30935;BME280;51033;42.648;23.292;2022-12-16T05:20:52;93621.53;;;4.41;73.12
30935;BME280;51033;42.648;23.292;2022-12-16T05:23:36;93622.97;;;4.57;71.72
30935;BME280;51033;42.648;23.292;2022-12-16T05:26:19;93646.94;;;4.55;71.44
30935;BME280;51033;42.648;23.292;2022-12-16T05:29:04;93649.44;;;4.42;72.45
30935;BME280;51033;42.648;23.292;2022-12-16T05:31:47;93651.97;;;4.52;70.93
30935;BME280;51033;42.648;23.292;2022-12-16T05:34:32;93664.97;;;4.43;71.14
30935;BME280;51033;42.648;23.292;2022-12-16T05:37:15;93654.81;;;4.26;71.55
30935;BME280;51033;42.648;23.292;2022-12-16T05:39:59;93697.72;;;4.32;71.81
30935;BME280;51033;42.648;23.292;2022-12-16T05:42:46;93700.66;;;4.31;71.88
30935;BME280;51033;42.648;23.292;2022-12-16T05:45:30;93690.69;;;4.17;72.49
30935;BME280;51033;42.648;23.292;2022-12-16T05:48:14;93672.88;;;4.09;72.38
30935;BME280;51033;42.648;23.292;2022-12-16T05:50:58;93686.91;;;4.00;73.38
30935;BME280;51033;42.648;23.292;2022-12-16T05:53:41;93703.94;;;4.07;73.62
30935;BME280;51033;42.648;23.292;2022-12-16T05:56:25;93687.78;;;3.85;74.93
30935;BME280;51033;42.648;23.292;2022-12-16T05:59:09;93692.66;;;4.02;74.77
30935;BME280;51033;42.648;23.292;2022-12-16T06:02:10;93715.22;;;4.13;74.78
30935;BME280;51033;42.648;23.292;2022-12-16T06:04:53;93686.22;;;3.84;75.11
30935;BME280;51033;42.648;23.292;2022-12-16T06:07:38;93711.50;;;4.19;74.46
30935;BME280;51033;42.648;23.292;2022-12-16T06:10:21;93726.88;;;4.41;74.23
30935;BME280;51033;42.648;23.292;2022-12-16T06:13:05;93710.63;;;4.34;74.41
30935;BME280;51033;42.648;23.292;2022-12-16T06:15:49;93699.66;;;4.16;74.98
30935;BME280;51033;42.648;23.292;2022-12-16T06:18:33;93746.84;;;3.59;78.57
30935;BME280;51033;42.648;23.292;2022-12-16T06:21:17;93719.13;;;3.32;78.76
30935;BME280;51033;42.648;23.292;2022-12-16T06:24:01;93718.13;;;3.67;78.13
30935;BME280;51033;42.648;23.292;2022-12-16T06:26:48;93747.50;;;3.84;77.81
30935;BME280;51033;42.648;23.292;2022-12-16T06:29:32;93718.41;;;3.17;80.03
30935;BME280;51033;42.648;23.292;2022-12-16T06:32:16;93719.31;;;3.51;79.53
30935;BME280;51033;42.648;23.292;2022-12-16T06:35:00;93712.59;;;3.74;78.64
30935;BME280;51033;42.648;23.292;2022-12-16T06:37:47;93715.59;;;3.57;79.64
30935;BME280;51033;42.648;23.292;2022-12-16T06:40:31;93709.75;;;3.65;78.55
30935;BME280;51033;42.648;23.292;2022-12-16T06:43:15;93716.84;;;3.65;78.97
30935;BME280;51033;42.648;23.292;2022-12-16T06:45:59;93707.09;;;3.70;79.43
30935;BME280;51033;42.648;23.292;2022-12-16T06:48:44;93710.88;;;3.93;78.54
30935;BME280;51033;42.648;23.292;2022-12-16T06:51:29;93690.78;;;3.68;78.72
30935;BME280;51033;42.648;23.292;2022-12-16T06:54:13;93721.78;;;3.76;78.74
30935;BME280;51033;42.648;23.292;2022-12-16T06:56:57;93709.03;;;3.50;80.62
30935;BME280;51033;42.648;23.292;2022-12-16T06:59:41;93736.03;;;3.06;82.88
30935;BME280;51033;42.648;23.292;2022-12-16T07:02:25;93713.31;;;3.35;81.93
30935;BME280;51033;42.648;23.292;2022-12-16T07:05:08;93725.03;;;3.58;80.91
30935;BME280;51033;42.648;23.292;2022-12-16T07:07:53;93716.66;;;3.56;80.44
30935;BME280;51033;42.648;23.292;2022-12-16T07:10:37;93717.09;;;3.68;79.64
30935;BME280;51033;42.648;23.292;2022-12-16T07:13:21;93727.31;;;3.75;79.26
30935;BME280;51033;42.648;23.292;2022-12-16T07:16:05;93722.78;;;3.36;80.68
30935;BME280;51033;42.648;23.292;2022-12-16T07:18:49;93711.75;;;3.34;80.43
30935;BME280;51033;42.648;23.292;2022-12-16T07:21:32;93726.03;;;3.67;80.19
30935;BME280;51033;42.648;23.292;2022-12-16T07:24:16;93718.06;;;3.33;81.17
30935;BME280;51033;42.648;23.292;2022-12-16T07:27:00;93723.09;;;3.74;80.33
30935;BME280;51033;42.648;23.292;2022-12-16T07:29:44;93732.72;;;3.50;81.56
30935;BME280;51033;42.648;23.292;2022-12-16T07:32:28;93729.75;;;2.97;82.99
30935;BME280;51033;42.648;23.292;2022-12-16T07:35:12;93724.38;;;3.37;82.43
30935;BME280;51033;42.648;23.292;2022-12-16T07:37:56;93741.06;;;3.62;81.43
30935;BME280;51033;42.648;23.292;2022-12-16T07:40:40;93731.75;;;3.79;80.28
30935;BME280;51033;42.648;23.292;2022-12-16T07:43:24;93728.25;;;3.94;79.27
30935;BME280;51033;42.648;23.292;2022-12-16T07:46:08;93749.50;;;3.59;81.77
30935;BME280;51033;42.648;23.292;2022-12-16T07:48:51;93746.88;;;3.54;82.06
30935;BME280;51033;42.648;23.292;2022-12-16T07:51:35;93727.72;;;3.43;82.15
30935;BME280;51033;42.648;23.292;2022-12-16T07:54:19;93748.38;;;3.70;81.37
30935;BME280;51033;42.648;23.292;2022-12-16T07:57:03;93719.44;;;3.75;80.00
30935;BME280;51033;42.648;23.292;2022-12-16T07:59:47;93719.53;;;3.99;79.10
30935;BME280;51033;42.648;23.292;2022-12-16T08:02:30;93737.81;;;3.80;79.42
30935;BME280;51033;42.648;23.292;2022-12-16T08:05:14;93732.38;;;3.66;80.08
30935;BME280;51033;42.648;23.292;2022-12-16T08:07:58;93748.38;;;3.70;79.99
30935;BME280;51033;42.648;23.292;2022-12-16T08:10:42;93747.94;;;3.53;80.72
30935;BME280;51033;42.648;23.292;2022-12-16T08:13:26;93755.38;;;3.35;82.31
30935;BME280;51033;42.648;23.292;2022-12-16T08:16:09;93754.84;;;3.38;82.46
30935;BME280;51033;42.648;23.292;2022-12-16T08:18:53;93745.28;;;3.58;82.75
30935;BME280;51033;42.648;23.292;2022-12-16T08:21:37;93719.78;;;3.53;82.27
30935;BME280;51033;42.648;23.292;2022-12-16T08:24:21;93750.91;;;3.41;83.70
30935;BME280;51033;42.648;23.292;2022-12-16T08:27:06;93768.31;;;3.81;82.51
30935;BME280;51033;42.648;23.292;2022-12-16T08:29:49;93746.69;;;3.89;81.95
30935;BME280;51033;42.648;23.292;2022-12-16T08:32:33;93736.44;;;3.38;84.08
30935;BME280;51033;42.648;23.292;2022-12-16T08:35:17;93729.06;;;3.40;84.34
30935;BME280;51033;42.648;23.292;2022-12-16T08:38:01;93755.03;;;3.57;84.77
30935;BME280;51033;42.648;23.292;2022-12-16T08:40:45;93767.25;;;3.82;84.28
30935;BME280;51033;42.648;23.292;2022-12-16T08:43:31;93744.19;;;3.64;84.84
30935;BME280;51033;42.648;23.292;2022-12-16T08:46:26;93740.88;;;3.92;84.19
30935;BME280;51033;42.648;23.292;2022-12-16T08:49:10;93704.75;;;4.03;83.20
30935;BME280;51033;42.648;23.292;2022-12-16T08:51:54;93733.09;;;4.16;83.73
30935;BME280;51033;42.648;23.292;2022-12-16T08:54:37;93723.81;;;4.23;83.87
30935;BME280;51033;42.648;23.292;2022-12-16T08:57:24;93724.88;;;4.22;83.51
30935;BME280;51033;42.648;23.292;2022-12-16T09:00:08;93709.50;;;4.40;83.03
30935;BME280;51033;42.648;23.292;2022-12-16T09:02:57;93710.09;;;4.26;83.37
30935;BME280;51033;42.648;23.292;2022-12-16T09:05:41;93705.78;;;4.41;83.21
30935;BME280;51033;42.648;23.292;2022-12-16T09:08:25;93698.31;;;4.53;83.23
30935;BME280;51033;42.648;23.292;2022-12-16T09:11:10;93696.88;;;4.65;82.96
30935;BME280;51033;42.648;23.292;2022-12-16T09:13:53;93688.59;;;4.77;82.31
30935;BME280;51033;42.648;23.292;2022-12-16T09:16:37;93685.22;;;4.72;83.12
30935;BME280;51033;42.648;23.292;2022-12-16T09:19:21;93702.25;;;4.84;82.80
30935;BME280;51033;42.648;23.292;2022-12-16T09:22:06;93650.59;;;4.83;81.92
30935;BME280;51033;42.648;23.292;2022-12-16T09:24:52;93686.91;;;5.10;82.51
30935;BME280;51033;42.648;23.292;2022-12-16T09:27:36;93665.94;;;5.00;82.40
30935;BME280;51033;42.648;23.292;2022-12-16T09:30:21;93636.22;;;4.70;84.02
30935;BME280;51033;42.648;23.292;2022-12-16T09:33:05;93664.34;;;5.04;83.90
30935;BME280;51033;42.648;23.292;2022-12-16T09:35:49;93655.19;;;5.39;82.88
30935;BME280;51033;42.648;23.292;2022-12-16T09:38:34;93653.50;;;5.67;81.85
30935;BME280;51033;42.648;23.292;2022-12-16T09:41:31;93660.31;;;5.49;83.58
30935;BME280;51033;42.648;23.292;2022-12-16T09:44:37;93642.31;;;5.56;83.65
30935;BME280;51033;42.648;23.292;2022-12-16T09:47:41;93656.34;;;5.70;83.90
30935;BME280;51033;42.648;23.292;2022-12-16T09:50:29;93616.59;;;5.80;82.26
30935;BME280;51033;42.648;23.292;2022-12-16T09:53:16;93626.03;;;5.86;81.45
30935;BME280;51033;42.648;23.292;2022-12-16T09:56:04;93552.53;;;5.24;81.46
30935;BME280;51033;42.648;23.292;2022-12-16T09:58:57;93634.56;;;6.16;80.67
30935;BME280;51033;42.648;23.292;2022-12-16T10:01:43;93630.25;;;6.20;81.08
30935;BME280;51033;42.648;23.292;2022-12-16T10:04:27;93636.66;;;6.14;80.34
30935;BME280;51033;42.648;23.292;2022-12-16T10:07:17;93655.66;;;6.48;79.95
30935;BME280;51033;42.648;23.292;2022-12-16T10:10:30;93658.38;;;6.43;79.71
30935;BME280;51033;42.648;23.292;2022-12-16T10:13:40;93654.16;;;6.42;80.39
30935;BME280;51033;42.648;23.292;2022-12-16T10:23:05;93655.03;;;6.37;80.52
30935;BME280;51033;42.648;23.292;2022-12-16T10:28:46;93607.66;;;6.73;78.08
30935;BME280;51033;42.648;23.292;2022-12-16T10:31:32;93614.22;;;6.90;77.44
30935;BME280;51033;42.648;23.292;2022-12-16T10:34:24;93611.94;;;6.97;78.11
30935;BME280;51033;42.648;23.292;2022-12-16T10:37:34;93605.88;;;6.82;79.14
30935;BME280;51033;42.648;23.292;2022-12-16T10:40:23;93591.19;;;6.63;79.35
30935;BME280;51033;42.648;23.292;2022-12-16T10:43:15;93596.47;;;6.76;79.48
30935;BME280;51033;42.648;23.292;2022-12-16T10:46:06;93617.25;;;6.69;79.40
30935;BME280;51033;42.648;23.292;2022-12-16T10:48:54;93595.88;;;6.52;78.90
30935;BME280;51033;42.648;23.292;2022-12-16T10:51:38;93625.16;;;6.69;79.26
30935;BME280;51033;42.648;23.292;2022-12-16T10:54:39;93619.38;;;6.81;78.89
30935;BME280;51033;42.648;23.292;2022-12-16T10:58:05;93605.47;;;6.75;78.07
30935;BME280;51033;42.648;23.292;2022-12-16T11:00:51;93617.19;;;7.24;76.10
30935;BME280;51033;42.648;23.292;2022-12-16T11:03:37;93629.56;;;7.28;76.58
30935;BME280;51033;42.648;23.292;2022-12-16T11:09:21;93599.34;;;7.43;75.72
30935;BME280;51033;42.648;23.292;2022-12-16T11:15:27;93609.97;;;7.88;73.56
30935;BME280;51033;42.648;23.292;2022-12-16T11:18:19;93612.41;;;7.76;75.40
30935;BME280;51033;42.648;23.292;2022-12-16T11:24:18;93615.53;;;8.22;72.70
30935;BME280;51033;42.648;23.292;2022-12-16T11:27:14;93618.66;;;8.24;71.65
30935;BME280;51033;42.648;23.292;2022-12-16T11:30:01;93604.72;;;8.10;71.94
30935;BME280;51033;42.648;23.292;2022-12-16T11:32:51;93601.44;;;8.13;72.33
30935;BME280;51033;42.648;23.292;2022-12-16T11:35:40;93600.94;;;8.33;72.02
30935;BME280;51033;42.648;23.292;2022-12-16T11:38:40;93584.28;;;8.41;70.35
30935;BME280;51033;42.648;23.292;2022-12-16T11:41:31;93609.41;;;8.44;70.86
30935;BME280;51033;42.648;23.292;2022-12-16T11:44:21;93580.16;;;8.57;70.33
30935;BME280;51033;42.648;23.292;2022-12-16T11:47:18;93573.56;;;8.46;70.40
30935;BME280;51033;42.648;23.292;2022-12-16T11:50:08;93578.06;;;8.77;69.53
30935;BME280;51033;42.648;23.292;2022-12-16T11:52:55;93580.44;;;8.47;71.97
30935;BME280;51033;42.648;23.292;2022-12-16T11:55:43;93591.84;;;8.56;72.18
30935;BME280;51033;42.648;23.292;2022-12-16T12:01:19;93564.41;;;8.52;70.22
30935;BME280;51033;42.648;23.292;2022-12-16T12:04:04;93569.97;;;8.82;70.84
30935;BME280;51033;42.648;23.292;2022-12-16T12:09:50;93552.94;;;8.66;71.59
30935;BME280;51033;42.648;23.292;2022-12-16T12:19:37;93543.81;;;9.06;71.53
30935;BME280;51033;42.648;23.292;2022-12-16T12:22:34;93560.50;;;8.89;72.07
30935;BME280;51033;42.648;23.292;2022-12-16T12:28:33;93553.88;;;9.26;71.73
30935;BME280;51033;42.648;23.292;2022-12-16T12:41:36;93556.22;;;9.45;71.34
30935;BME280;51033;42.648;23.292;2022-12-16T12:47:04;93549.97;;;9.75;69.51
30935;BME280;51033;42.648;23.292;2022-12-16T12:59:12;93555.28;;;9.93;68.47
30935;BME280;51033;42.648;23.292;2022-12-16T13:02:01;93553.09;;;9.86;68.25
30935;BME280;51033;42.648;23.292;2022-12-16T13:04:46;93540.16;;;9.76;68.90
30935;BME280;51033;42.648;23.292;2022-12-16T13:07:32;93542.16;;;9.96;68.66
30935;BME280;51033;42.648;23.292;2022-12-16T13:16:03;93536.09;;;9.70;69.40
30935;BME280;51033;42.648;23.292;2022-12-16T13:18:47;93541.84;;;9.80;68.51
30935;BME280;51033;42.648;23.292;2022-12-16T13:27:11;93549.06;;;9.71;68.86
30935;BME280;51033;42.648;23.292;2022-12-16T13:36:01;93539.22;;;9.37;71.06
30935;BME280;51033;42.648;23.292;2022-12-16T13:38:50;93517.34;;;9.23;71.18
30935;BME280;51033;42.648;23.292;2022-12-16T13:50:48;93567.44;;;9.25;72.41
30935;BME280;51033;42.648;23.292;2022-12-16T13:53:50;93558.41;;;9.34;71.46
30935;BME280;51033;42.648;23.292;2022-12-16T13:56:41;93567.31;;;9.56;71.06
30935;BME280;51033;42.648;23.292;2022-12-16T13:59:30;93572.78;;;9.59;70.89
30935;BME280;51033;42.648;23.292;2022-12-16T14:02:50;93580.13;;;9.54;71.30
30935;BME280;51033;42.648;23.292;2022-12-16T14:05:36;93588.25;;;9.49;71.42
30935;BME280;51033;42.648;23.292;2022-12-16T14:08:32;93586.06;;;9.33;71.63
30935;BME280;51033;42.648;23.292;2022-12-16T14:11:57;93579.00;;;8.81;74.03
30935;BME280;51033;42.648;23.292;2022-12-16T14:14:49;93606.53;;;9.02;73.93
30935;BME280;51033;42.648;23.292;2022-12-16T14:17:42;93592.34;;;9.07;73.81
30935;BME280;51033;42.648;23.292;2022-12-16T14:20:38;93609.88;;;9.16;73.82
30935;BME280;51033;42.648;23.292;2022-12-16T14:23:39;93605.38;;;9.25;73.17
30935;BME280;51033;42.648;23.292;2022-12-16T14:26:25;93591.81;;;9.27;72.38
30935;BME280;51033;42.648;23.292;2022-12-16T14:29:21;93594.94;;;9.29;72.71
30935;BME280;51033;42.648;23.292;2022-12-16T14:35:15;93597.91;;;9.27;72.82
30935;BME280;51033;42.648;23.292;2022-12-16T14:38:22;93588.66;;;9.16;73.28
30935;BME280;51033;42.648;23.292;2022-12-16T14:41:13;93603.06;;;9.24;72.95
30935;BME280;51033;42.648;23.292;2022-12-16T14:43:58;93563.78;;;8.95;73.33
30935;BME280;51033;42.648;23.292;2022-12-16T14:46:48;93594.72;;;9.08;74.46
30935;BME280;51033;42.648;23.292;2022-12-16T14:49:32;93576.88;;;9.00;74.22
30935;BME280;51033;42.648;23.292;2022-12-16T14:55:10;93575.47;;;8.94;74.06
30935;BME280;51033;42.648;23.292;2022-12-16T14:58:24;93592.19;;;9.03;74.90
30935;BME280;51033;42.648;23.292;2022-12-16T15:01:20;93594.59;;;9.22;73.49
30935;BME280;51033;42.648;23.292;2022-12-16T15:04:13;93580.72;;;9.25;73.80
30935;BME280;51033;42.648;23.292;2022-12-16T15:07:01;93575.88;;;9.27;73.57
30935;BME280;51033;42.648;23.292;2022-12-16T15:09:49;93579.91;;;9.16;74.23
30935;BME280;51033;42.648;23.292;2022-12-16T15:12:38;93601.59;;;9.09;74.34
30935;BME280;51033;42.648;23.292;2022-12-16T15:15:45;93556.28;;;8.97;74.38
30935;BME280;51033;42.648;23.292;2022-12-16T15:18:39;93584.28;;;9.20;73.59
30935;BME280;51033;42.648;23.292;2022-12-16T15:21:25;93550.44;;;9.17;73.93
30935;BME280;51033;42.648;23.292;2022-12-16T15:24:20;93567.84;;;9.10;74.39
30935;BME280;51033;42.648;23.292;2022-12-16T15:33:20;93590.91;;;8.92;74.95
30935;BME280;51033;42.648;23.292;2022-12-16T15:36:05;93589.81;;;8.84;75.30
30935;BME280;51033;42.648;23.292;2022-12-16T15:38:49;93602.72;;;8.86;75.31
30935;BME280;51033;42.648;23.292;2022-12-16T15:41:36;93603.72;;;8.98;74.61
30935;BME280;51033;42.648;23.292;2022-12-16T15:44:25;93604.44;;;8.82;75.13
30935;BME280;51033;42.648;23.292;2022-12-16T15:47:19;93612.19;;;9.09;74.30
30935;BME280;51033;42.648;23.292;2022-12-16T15:50:05;93601.88;;;8.99;74.21
30935;BME280;51033;42.648;23.292;2022-12-16T15:52:49;93597.56;;;8.81;74.45
30935;BME280;51033;42.648;23.292;2022-12-16T16:01:07;93618.31;;;8.79;75.24
30935;BME280;51033;42.648;23.292;2022-12-16T16:03:57;93642.09;;;9.01;73.44
30935;BME280;51033;42.648;23.292;2022-12-16T16:06:47;93624.03;;;8.64;74.79
30935;BME280;51033;42.648;23.292;2022-12-16T16:09:33;93626.41;;;8.74;74.97
30935;BME280;51033;42.648;23.292;2022-12-16T16:12:20;93627.22;;;8.83;74.62
30935;BME280;51033;42.648;23.292;2022-12-16T16:15:05;93614.78;;;8.61;74.86
30935;BME280;51033;42.648;23.292;2022-12-16T16:17:54;93637.69;;;8.57;75.77
30935;BME280;51033;42.648;23.292;2022-12-16T16:20:39;93641.75;;;8.32;76.40
30935;BME280;51033;42.648;23.292;2022-12-16T16:23:23;93619.03;;;8.31;76.79
30935;BME280;51033;42.648;23.292;2022-12-16T16:26:12;93634.53;;;8.46;75.84
30935;BME280;51033;42.648;23.292;2022-12-16T16:28:56;93640.47;;;8.52;75.71
30935;BME280;51033;42.648;23.292;2022-12-16T16:31:41;93633.91;;;8.41;75.54